Terminal Aerodrome Forecast
Issued by NWS Cleveland, OH

Home | Current Version | Previous Version | Text Only | Print | Product List | Glossary On
Versions: 1 2 3 4 5 6 7 8 9 10 11 12 13 14 15 16 17 18 19 20 21 22 23 24 25 26 27 28 29 30 31 32
000
FTUS41 KCLE 181410 AAA
TAFERI
TAF AMD
KERI 181410Z 1814/1912 21010KT 5SM -RA BKN015 OVC035
     FM181800 22013G23KT 5SM -DZ BR VCSH OVC007
     FM190300 22012KT P6SM OVC012=

USA.gov is the U.S. government's official web portal to all federal, state and local government web resources and services.